Time;durP1;ratioP1;P1;durP2;ratioP2;P2;SDS_P1;SDS_P2;PMS_P1;PMS_P2;Temp;Humidity;BMP_temperature;BMP_pressure;BME280_temperature;BME280_humidity;BME280_pressure;Samples;Min_cycle;Max_cycle;Signal;HPM_P1;HPM_P2
2023/09/15 00:00:25;;;;;;;;;;;;;;;17.03;50.35;101955.75;4964253;28;115782;-81
2023/09/15 00:02:54;;;;;;;;;;;;;;;16.99;50.47;101970.22;4973929;28;114552;-81
2023/09/15 00:05:29;;;;;;;;;;;;;;;16.92;50.53;101959.84;4973131;28;124754;-82
2023/09/15 00:08:00;;;;;;;;;;;;;;;16.88;50.43;101962.78;4967303;28;123804;-81
2023/09/15 00:10:27;;;;;;;;;;;;;;;16.83;50.75;101960.34;4972217;28;114131;-80
2023/09/15 00:12:54;;;;;;;;;;;;;;;16.82;50.59;101952.38;4971829;28;114219;-80
2023/09/15 00:15:21;;;;;;;;;;;;;;;16.79;50.70;101958.75;4971473;28;124975;-82
2023/09/15 00:17:48;;;;;;;;;;;;;;;16.77;50.69;101949.94;4976486;28;124037;-81
2023/09/15 00:20:20;;;;;;;;;;;;;;;16.74;50.63;101955.44;4950739;28;115362;-82
2023/09/15 00:22:49;;;;;;;;;;;;;;;16.72;50.59;101952.00;4974707;28;113789;-82
2023/09/15 00:25:20;;;;;;;;;;;;;;;16.69;50.70;101946.81;4965176;28;126088;-80
2023/09/15 00:27:48;;;;;;;;;;;;;;;16.67;50.81;101948.69;4970667;28;123859;-81
2023/09/15 00:30:16;;;;;;;;;;;;;;;16.66;50.70;101941.63;4956223;28;113664;-81
2023/09/15 00:32:43;;;;;;;;;;;;;;;16.63;51.00;101939.09;4974239;28;112672;-80
2023/09/15 00:35:11;;;;;;;;;;;;;;;16.60;50.70;101933.94;4975420;28;124180;-82
2023/09/15 00:37:38;;;;;;;;;;;;;;;16.59;50.94;101945.56;4977604;28;125338;-80
2023/09/15 00:40:08;;;;;;;;;;;;;;;16.58;50.91;101943.84;4976135;28;115627;-81
2023/09/15 00:42:41;;;;;;;;;;;;;;;16.57;50.91;101939.44;4978756;28;113425;-80
2023/09/15 00:45:09;;;;;;;;;;;;;;;16.55;50.96;101939.50;4978402;28;124575;-80
2023/09/15 00:47:36;;;;;;;;;;;;;;;16.53;50.88;101931.56;4966840;28;122449;-80
2023/09/15 00:50:03;;;;;;;;;;;;;;;16.53;50.97;101933.38;4976535;28;113378;-80
2023/09/15 00:52:33;;;;;;;;;;;;;;;16.52;51.04;101929.84;4980400;28;114536;-80
2023/09/15 00:55:00;;;;;;;;;;;;;;;16.52;50.95;101927.19;4980052;28;124194;-80
2023/09/15 00:57:27;;;;;;;;;;;;;;;16.50;50.83;101934.44;4962637;28;125075;-81
2023/09/15 00:59:54;;;;;;;;;;;;;;;16.46;50.96;101930.19;4972984;28;114523;-80
2023/09/15 01:02:21;;;;;;;;;;;;;;;16.43;50.87;101930.34;4977320;28;114517;-79
2023/09/15 01:04:48;;;;;;;;;;;;;;;16.41;50.89;101926.88;4969262;28;125028;-80
2023/09/15 01:07:15;;;;;;;;;;;;;;;16.40;50.82;101925.13;4972422;28;123473;-80
2023/09/15 01:09:43;;;;;;;;;;;;;;;16.38;50.89;101927.03;4980133;28;114358;-81
2023/09/15 01:12:10;;;;;;;;;;;;;;;16.35;51.06;101921.88;4973451;28;114259;-79
2023/09/15 01:14:37;;;;;;;;;;;;;;;16.33;50.98;101907.69;4963854;28;123652;-80
2023/09/15 01:17:11;;;;;;;;;;;;;;;16.31;51.07;101915.81;4970797;28;123252;-80
2023/09/15 01:19:53;;;;;;;;;;;;;;;16.29;51.04;101911.47;4963098;28;113631;-80
2023/09/15 01:22:39;;;;;;;;;;;;;;;16.27;51.02;101913.34;4976153;28;113142;-80
2023/09/15 01:25:15;;;;;;;;;;;;;;;16.23;51.00;101911.78;4978963;28;123724;-80
2023/09/15 01:27:42;;;;;;;;;;;;;;;16.19;51.04;101915.56;4984806;28;124160;-81
2023/09/15 01:30:10;;;;;;;;;;;;;;;16.15;51.12;101907.69;4986975;28;112839;-81
2023/09/15 01:32:38;;;;;;;;;;;;;;;16.13;51.10;101906.91;4968078;28;112341;-82
2023/09/15 01:35:05;;;;;;;;;;;;;;;16.11;51.00;101908.81;4979904;28;122952;-80
2023/09/15 01:37:32;;;;;;;;;;;;;;;16.09;51.04;101910.69;4954198;28;121961;-80
2023/09/15 01:39:59;;;;;;;;;;;;;;;16.08;51.00;101906.28;4968745;28;115269;-80
2023/09/15 01:42:26;;;;;;;;;;;;;;;16.07;51.22;101898.38;4977657;28;115660;-80
2023/09/15 01:44:54;;;;;;;;;;;;;;;16.06;51.20;101897.47;4979659;28;123745;-81
2023/09/15 01:47:22;;;;;;;;;;;;;;;16.05;51.20;101892.22;4978148;28;122386;-80
2023/09/15 01:49:50;;;;;;;;;;;;;;;16.03;51.24;101894.97;4979279;28;115662;-80
2023/09/15 01:52:17;;;;;;;;;;;;;;;16.02;51.09;101898.59;4980152;28;112667;-80
2023/09/15 01:54:45;;;;;;;;;;;;;;;16.00;51.15;101892.47;4985111;28;125257;-80
2023/09/15 01:57:12;;;;;;;;;;;;;;;15.99;51.07;101893.38;4981792;28;125035;-80
2023/09/15 01:59:39;;;;;;;;;;;;;;;15.96;51.11;101899.75;4979368;28;113932;-80
2023/09/15 02:02:06;;;;;;;;;;;;;;;15.94;51.19;101895.44;4972447;28;113368;-80
2023/09/15 02:04:33;;;;;;;;;;;;;;;15.93;51.30;101899.03;4971769;28;122554;-81
2023/09/15 02:07:00;;;;;;;;;;;;;;;15.91;51.24;101895.59;4979167;28;124528;-80
2023/09/15 02:09:27;;;;;;;;;;;;;;;15.90;51.29;101888.53;4951280;28;114055;-80
2023/09/15 02:11:54;;;;;;;;;;;;;;;15.89;51.22;101892.13;4965607;28;114325;-81
2023/09/15 02:14:21;;;;;;;;;;;;;;;15.89;51.14;101892.13;4979901;28;123860;-80
2023/09/15 02:16:48;;;;;;;;;;;;;;;15.88;51.25;101890.41;4979845;28;124190;-80
2023/09/15 02:19:16;;;;;;;;;;;;;;;15.87;51.31;101888.69;4978690;28;113363;-80
2023/09/15 02:21:43;;;;;;;;;;;;;;;15.85;51.23;101896.75;4985562;28;112758;-80
2023/09/15 02:24:10;;;;;;;;;;;;;;;15.82;51.29;101891.56;4981762;28;123141;-80
2023/09/15 02:26:38;;;;;;;;;;;;;;;15.79;51.20;101886.41;4974434;28;123131;-81
2023/09/15 02:29:05;;;;;;;;;;;;;;;15.76;51.33;101882.09;4970165;28;115617;-80
2023/09/15 02:31:32;;;;;;;;;;;;;;;15.76;51.26;101892.78;4968178;28;113728;-81
2023/09/15 02:34:00;;;;;;;;;;;;;;;15.74;51.44;101889.28;4978265;28;123507;-80
2023/09/15 02:36:27;;;;;;;;;;;;;;;15.74;51.35;101889.28;4981518;28;122032;-82
2023/09/15 02:38:54;;;;;;;;;;;;;;;15.72;51.45;101885.78;4978879;28;113705;-80
2023/09/15 02:41:22;;;;;;;;;;;;;;;15.74;51.34;101883.09;4981740;28;113050;-80
2023/09/15 02:43:49;;;;;;;;;;;;;;;15.74;51.62;101878.59;4983124;28;123944;-81
2023/09/15 02:46:16;;;;;;;;;;;;;;;15.73;51.32;101879.56;4982640;28;123560;-80
2023/09/15 02:48:43;;;;;;;;;;;;;;;15.71;51.24;101873.41;4976442;28;114648;-81
2023/09/15 02:51:11;;;;;;;;;;;;;;;15.67;51.39;101871.81;4974580;28;113311;-80
2023/09/15 02:53:40;;;;;;;;;;;;;;;15.65;51.33;101873.72;4968738;28;122582;-80
2023/09/15 02:56:08;;;;;;;;;;;;;;;15.62;51.34;101868.50;4981330;28;123450;-81
2023/09/15 02:58:36;;;;;;;;;;;;;;;15.60;51.37;101869.53;4982411;28;112972;-80
2023/09/15 03:01:11;;;;;;;;;;;;;;;15.59;51.52;101871.31;4972784;28;112357;-80
2023/09/15 03:03:40;;;;;;;;;;;;;;;15.58;51.42;101869.63;4970404;28;123660;-81
2023/09/15 03:06:08;;;;;;;;;;;;;;;15.56;51.63;101869.69;4971937;28;123806;-81
2023/09/15 03:08:36;;;;;;;;;;;;;;;15.56;51.44;101866.16;4981055;28;112835;-82
2023/09/15 03:11:04;;;;;;;;;;;;;;;15.56;51.60;101866.16;4989357;28;113183;-81
2023/09/15 03:13:31;;;;;;;;;;;;;;;15.55;51.59;101872.44;4989218;28;125092;-80
2023/09/15 03:16:06;;;;;;;;;;;;;;;15.55;51.51;101861.75;4987125;28;123367;-81
2023/09/15 03:18:34;;;;;;;;;;;;;;;15.55;51.48;101867.94;4987689;28;114906;-80
2023/09/15 03:21:01;;;;;;;;;;;;;;;15.55;51.65;101864.41;4987952;28;115396;-80
2023/09/15 03:23:29;;;;;;;;;;;;;;;15.54;51.73;101860.03;4972168;28;125710;-80
2023/09/15 03:26:00;;;;;;;;;;;;;;;15.54;51.63;101860.03;4978599;28;123507;-81
2023/09/15 03:28:31;;;;;;;;;;;;;;;15.52;51.50;101867.22;4982814;28;112696;-81
2023/09/15 03:30:58;;;;;;;;;;;;;;;15.51;51.60;101854.84;4988896;28;112796;-82
2023/09/15 03:33:27;;;;;;;;;;;;;;;15.48;51.56;101861.19;5000821;28;124469;-80
2023/09/15 03:35:54;;;;;;;;;;;;;;;15.46;51.59;101854.19;4988577;28;124737;-81
2023/09/15 03:38:23;;;;;;;;;;;;;;;15.45;51.52;101855.16;4997760;28;107407;-81
2023/09/15 03:40:50;;;;;;;;;;;;;;;15.43;51.80;101851.69;4971813;28;111747;-80
2023/09/15 03:43:17;;;;;;;;;;;;;;;15.41;51.64;101848.19;4982763;28;122856;-80
2023/09/15 03:45:46;;;;;;;;;;;;;;;15.38;51.59;101844.75;4978998;28;122107;-80
2023/09/15 03:48:14;;;;;;;;;;;;;;;15.35;51.61;101844.91;4987425;28;113702;-79
2023/09/15 03:50:41;;;;;;;;;;;;;;;15.32;51.71;101839.72;4972723;28;113232;-81
2023/09/15 03:53:09;;;;;;;;;;;;;;;15.29;51.84;101839.84;4975887;28;124910;-81
2023/09/15 03:55:38;;;;;;;;;;;;;;;15.29;51.75;101844.34;4974995;28;126057;-80
2023/09/15 03:58:05;;;;;;;;;;;;;;;15.28;51.72;101846.16;4980356;28;114070;-80
2023/09/15 04:00:32;;;;;;;;;;;;;;;15.28;51.78;101848.81;4981718;28;111724;-81
2023/09/15 04:02:59;;;;;;;;;;;;;;;15.29;51.79;101847.84;4992614;28;125287;-81
2023/09/15 04:05:27;;;;;;;;;;;;;;;15.28;51.76;101840.81;4983289;28;123774;-82
2023/09/15 04:07:54;;;;;;;;;;;;;;;15.28;51.79;101839.94;4986295;28;114520;-80
2023/09/15 04:10:21;;;;;;;;;;;;;;;15.28;51.86;101838.13;4991827;28;114374;-81
2023/09/15 04:12:48;;;;;;;;;;;;;;;15.28;51.94;101832.81;4980465;28;122211;-82
2023/09/15 04:15:16;;;;;;;;;;;;;;;15.27;51.92;101841.75;4975934;28;121737;-80
2023/09/15 04:17:44;;;;;;;;;;;;;;;15.26;51.80;101839.16;4977541;28;113881;-81
2023/09/15 04:20:11;;;;;;;;;;;;;;;15.24;51.87;101841.91;4986583;28;112743;-81
2023/09/15 04:22:39;;;;;;;;;;;;;;;15.23;51.85;101829.47;4976598;28;122509;-81
2023/09/15 04:25:07;;;;;;;;;;;;;;;15.22;51.84;101827.78;4975936;28;124312;-81
2023/09/15 04:27:34;;;;;;;;;;;;;;;15.21;51.85;101831.38;4975262;28;115393;-80
2023/09/15 04:30:02;;;;;;;;;;;;;;;15.19;51.96;101836.78;4978890;28;114184;-81
2023/09/15 04:32:35;;;;;;;;;;;;;;;15.17;51.85;101833.31;4994147;28;123036;-81
2023/09/15 04:35:03;;;;;;;;;;;;;;;15.16;51.89;101828.06;4976644;28;123582;-80
2023/09/15 04:37:31;;;;;;;;;;;;;;;15.16;52.01;101836.06;4979360;28;115531;-81
2023/09/15 04:39:58;;;;;;;;;;;;;;;15.15;51.90;101837.00;4993720;28;113493;-80
2023/09/15 04:42:25;;;;;;;;;;;;;;;15.13;52.03;101838.91;4970844;28;124810;-81
2023/09/15 04:44:53;;;;;;;;;;;;;;;15.10;51.92;101837.22;4981973;28;122511;-81
2023/09/15 04:47:30;;;;;;;;;;;;;;;15.09;51.87;101831.97;4978298;28;112897;-81
2023/09/15 04:49:59;;;;;;;;;;;;;;;15.07;51.91;101833.81;4971597;28;112728;-80
2023/09/15 04:52:26;;;;;;;;;;;;;;;15.05;52.08;101825.03;4961276;28;123403;-81
2023/09/15 04:54:54;;;;;;;;;;;;;;;15.04;52.04;101828.66;4956153;28;123054;-80
2023/09/15 04:57:21;;;;;;;;;;;;;;;15.03;52.06;101826.91;4970364;28;114458;-80
2023/09/15 04:59:48;;;;;;;;;;;;;;;14.99;52.09;101827.09;4976956;28;115257;-79
2023/09/15 05:02:16;;;;;;;;;;;;;;;14.98;51.98;101836.00;4961348;28;125343;-81
2023/09/15 05:04:44;;;;;;;;;;;;;;;14.98;52.03;101840.50;4970998;28;125423;-80
2023/09/15 05:07:12;;;;;;;;;;;;;;;14.95;52.08;101836.16;4956165;28;115564;-81
2023/09/15 05:09:39;;;;;;;;;;;;;;;14.96;52.20;101840.56;4961616;28;112879;-80
2023/09/15 05:12:06;;;;;;;;;;;;;;;14.95;52.14;101841.47;4962736;28;122818;-80
2023/09/15 05:14:35;;;;;;;;;;;;;;;14.94;52.26;101845.09;4971860;28;125264;-80
2023/09/15 05:17:03;;;;;;;;;;;;;;;14.95;52.28;101836.16;4971937;28;115819;-81
2023/09/15 05:19:30;;;;;;;;;;;;;;;14.94;52.12;101845.09;4977426;28;114889;-81
2023/09/15 05:21:57;;;;;;;;;;;;;;;14.93;52.26;101840.69;4971583;28;123382;-80
2023/09/15 05:24:25;;;;;;;;;;;;;;;14.93;52.13;101846.03;4969665;28;125184;-80
2023/09/15 05:26:52;;;;;;;;;;;;;;;14.92;52.24;101854.97;4963410;28;113443;-81
2023/09/15 05:29:19;;;;;;;;;;;;;;;14.92;52.33;101857.66;4967380;28;113830;-80
2023/09/15 05:31:46;;;;;;;;;;;;;;;14.93;52.24;101848.69;4962294;28;123222;-80
2023/09/15 05:34:13;;;;;;;;;;;;;;;14.94;52.37;101850.44;4948164;28;124877;-80
2023/09/15 05:36:40;;;;;;;;;;;;;;;14.95;52.37;101857.47;4971087;28;114040;-81
2023/09/15 05:39:08;;;;;;;;;;;;;;;14.96;52.44;101853.91;4981351;28;114803;-81
2023/09/15 05:41:35;;;;;;;;;;;;;;;14.97;52.37;101847.63;4969409;28;124254;-82
2023/09/15 05:44:02;;;;;;;;;;;;;;;15.01;52.45;101855.47;4966265;28;124447;-81
2023/09/15 05:46:29;;;;;;;;;;;;;;;15.01;52.46;101850.13;4967512;28;115209;-80
2023/09/15 05:48:56;;;;;;;;;;;;;;;15.01;52.33;101850.13;4967480;28;114795;-80
2023/09/15 05:51:23;;;;;;;;;;;;;;;15.01;52.39;101856.31;4960851;28;124007;-80
2023/09/15 05:53:51;;;;;;;;;;;;;;;15.03;52.49;101858.94;4960618;28;124115;-79
2023/09/15 05:56:22;;;;;;;;;;;;;;;15.05;52.50;101857.06;4969856;28;115210;-81
2023/09/15 05:58:56;;;;;;;;;;;;;;;15.05;52.40;101857.06;4947293;28;114657;-79
2023/09/15 06:01:26;;;;;;;;;;;;;;;15.06;52.56;101859.66;4952309;28;123586;-79
2023/09/15 06:03:53;;;;;;;;;;;;;;;15.08;52.48;101851.59;4964296;28;124133;-82
2023/09/15 06:06:20;;;;;;;;;;;;;;;15.10;52.50;101855.03;4966552;28;113025;-82
2023/09/15 06:08:47;;;;;;;;;;;;;;;15.12;52.61;101853.16;4947682;28;113010;-82
2023/09/15 06:11:15;;;;;;;;;;;;;;;15.16;52.54;101852.06;4966302;28;123240;-82
2023/09/15 06:13:42;;;;;;;;;;;;;;;15.22;52.76;101859.81;4956818;28;123044;-81
2023/09/15 06:16:09;;;;;;;;;;;;;;;15.28;52.60;101859.50;4967104;28;114344;-80
2023/09/15 06:18:36;;;;;;;;;;;;;;;15.35;52.70;101863.59;4963388;28;113829;-80
2023/09/15 06:21:03;;;;;;;;;;;;;;;15.45;52.81;101865.81;4963748;28;123086;-82
2023/09/15 06:23:30;;;;;;;;;;;;;;;15.54;52.89;101860.88;4964617;28;123545;-81
2023/09/15 06:25:57;;;;;;;;;;;;;;;15.67;52.83;101861.16;4936837;28;113487;-82
2023/09/15 06:28:24;;;;;;;;;;;;;;;15.75;52.99;101864.31;4964458;28;113333;-81
2023/09/15 06:30:52;;;;;;;;;;;;;;;15.87;53.12;101862.81;4955040;28;125002;-81
2023/09/15 06:33:19;;;;;;;;;;;;;;;16.03;53.22;101868.25;4967865;28;124626;-81
2023/09/15 06:35:47;;;;;;;;;;;;;;;16.18;53.22;101860.38;4957678;28;115079;-82
2023/09/15 06:38:14;;;;;;;;;;;;;;;16.27;53.31;101855.41;4968311;28;114805;-81
2023/09/15 06:40:41;;;;;;;;;;;;;;;16.41;53.19;101865.38;4958744;28;123115;-80
2023/09/15 06:43:08;;;;;;;;;;;;;;;16.51;52.95;101852.38;4949629;28;124659;-81
2023/09/15 06:45:35;;;;;;;;;;;;;;;16.61;53.04;101853.59;4950463;28;115884;-81
2023/09/15 06:48:02;;;;;;;;;;;;;;;16.71;52.84;101848.63;4954863;28;111879;-80
2023/09/15 06:50:29;;;;;;;;;;;;;;;16.81;53.20;101855.19;4960176;28;123090;-81
2023/09/15 06:52:56;;;;;;;;;;;;;;;16.93;53.20;101851.00;4951230;28;123110;-80
2023/09/15 06:55:23;;;;;;;;;;;;;;;17.07;53.35;101850.25;4966981;28;113796;-80
2023/09/15 06:57:51;;;;;;;;;;;;;;;17.22;53.16;101848.50;4968056;28;112901;-80
2023/09/15 07:00:19;;;;;;;;;;;;;;;17.36;53.27;101845.03;4965155;28;123640;-79
2023/09/15 07:02:46;;;;;;;;;;;;;;;17.50;53.21;101839.75;4969061;28;124144;-80
2023/09/15 07:05:13;;;;;;;;;;;;;;;17.65;53.24;101835.28;4967937;28;114151;-79
2023/09/15 07:07:40;;;;;;;;;;;;;;;17.81;53.13;101835.25;4969748;28;112708;-80
2023/09/15 07:10:08;;;;;;;;;;;;;;;17.94;53.17;101841.63;4960467;28;124141;-79
2023/09/15 07:12:35;;;;;;;;;;;;;;;18.08;53.39;101835.41;4964738;28;123678;-80
2023/09/15 07:15:04;;;;;;;;;;;;;;;18.22;53.31;101839.97;4969072;28;113597;-79
2023/09/15 07:17:31;;;;;;;;;;;;;;;18.37;53.05;101836.31;4970320;28;113703;-80
2023/09/15 07:19:58;;;;;;;;;;;;;;;18.51;53.11;101840.81;4970216;28;124166;-79
2023/09/15 07:22:27;;;;;;;;;;;;;;;18.66;53.16;101833.63;4977047;28;124662;-79
2023/09/15 07:24:54;;;;;;;;;;;;;;;18.81;53.04;101835.38;4971871;28;114597;-78
2023/09/15 07:27:23;;;;;;;;;;;;;;;18.93;53.27;101830.16;4972905;28;114458;-79
2023/09/15 07:29:50;;;;;;;;;;;;;;;19.09;53.04;101836.28;4953642;28;125136;-79
2023/09/15 07:32:17;;;;;;;;;;;;;;;19.22;53.08;101821.06;4971237;28;123834;-79
2023/09/15 07:34:44;;;;;;;;;;;;;;;19.32;52.82;101825.84;4972776;28;114468;-79
2023/09/15 07:37:11;;;;;;;;;;;;;;;19.42;52.81;101822.44;4973115;28;114307;-79
2023/09/15 07:39:39;;;;;;;;;;;;;;;19.52;52.78;101817.31;4954108;28;125270;-79
2023/09/15 07:42:08;;;;;;;;;;;;;;;19.63;52.89;101814.75;4954792;28;125537;-79
2023/09/15 07:44:37;;;;;;;;;;;;;;;19.73;52.83;101809.66;4958818;28;114522;-79
2023/09/15 07:47:06;;;;;;;;;;;;;;;19.77;52.45;101810.31;4970557;28;113463;-79
2023/09/15 07:49:34;;;;;;;;;;;;;;;19.79;52.32;101808.38;4969338;28;123087;-79
2023/09/15 07:52:01;;;;;;;;;;;;;;;19.80;52.40;101810.09;4972172;28;123750;-79
2023/09/15 07:54:29;;;;;;;;;;;;;;;19.83;52.49;101820.63;4970781;28;113496;-79
2023/09/15 07:56:56;;;;;;;;;;;;;;;19.88;52.48;101818.50;4963652;28;113868;-78
2023/09/15 07:59:23;;;;;;;;;;;;;;;19.97;52.63;101820.53;4966685;28;124131;-79
2023/09/15 08:01:51;;;;;;;;;;;;;;;20.01;52.52;101808.59;4981953;28;124206;-78
2023/09/15 08:04:18;;;;;;;;;;;;;;;20.05;52.42;101813.78;4951513;28;114891;-79
2023/09/15 08:06:45;;;;;;;;;;;;;;;20.12;52.58;101809.69;4969841;28;113194;-79
2023/09/15 08:09:12;;;;;;;;;;;;;;;20.19;52.56;101802.91;4968700;28;124129;-78
2023/09/15 08:11:40;;;;;;;;;;;;;;;20.24;52.44;101798.06;4967035;28;123950;-79
2023/09/15 08:14:07;;;;;;;;;;;;;;;20.30;52.38;101800.31;4979586;28;117359;-79
2023/09/15 08:16:34;;;;;;;;;;;;;;;20.36;52.35;101802.59;4971799;28;114507;-79
2023/09/15 08:19:02;;;;;;;;;;;;;;;20.41;52.31;101800.41;4968284;28;124176;-78
2023/09/15 08:21:29;;;;;;;;;;;;;;;20.48;52.33;101805.38;4968482;28;124278;-79
2023/09/15 08:23:56;;;;;;;;;;;;;;;20.56;52.36;101809.22;4960972;28;113761;-79
2023/09/15 08:26:25;;;;;;;;;;;;;;;20.63;52.35;101798.06;4973001;28;113846;-79
2023/09/15 08:29:09;;;;;;;;;;;;;;;20.72;52.39;101808.13;4968092;28;124357;-78
2023/09/15 08:31:37;;;;;;;;;;;;;;;20.84;52.57;101801.00;4971084;28;123558;-78
2023/09/15 08:34:04;;;;;;;;;;;;;;;20.96;52.53;101800.09;4970055;28;114688;-78
2023/09/15 08:36:31;;;;;;;;;;;;;;;21.07;52.34;101802.84;4957709;28;114538;-78
2023/09/15 08:38:58;;;;;;;;;;;;;;;21.15;52.33;101805.84;4970156;28;124254;-78
2023/09/15 08:41:33;;;;;;;;;;;;;;;21.28;52.39;101807.63;4970868;28;124601;-78
2023/09/15 08:44:00;;;;;;;;;;;;;;;21.37;52.31;101798.84;4972593;28;114055;-78
2023/09/15 08:46:30;;;;;;;;;;;;;;;21.47;52.34;101794.50;4954877;28;113869;-78
2023/09/15 08:48:58;;;;;;;;;;;;;;;21.60;52.30;101794.41;4964626;28;123820;-78
2023/09/15 08:51:25;;;;;;;;;;;;;;;21.69;52.14;101792.84;4968862;28;124109;-78
2023/09/15 08:53:56;;;;;;;;;;;;;;;21.78;52.00;101789.47;4970433;28;114299;-78
2023/09/15 08:56:26;;;;;;;;;;;;;;;21.86;52.04;101787.00;4956310;28;113710;-78
2023/09/15 08:58:53;;;;;;;;;;;;;;;21.94;51.99;101790.00;4970899;28;124592;-78
2023/09/15 09:01:20;;;;;;;;;;;;;;;22.01;51.98;101789.50;4969425;28;123924;-78
2023/09/15 09:03:48;;;;;;;;;;;;;;;22.09;51.93;101779.81;4956166;28;115727;-78
2023/09/15 09:06:16;;;;;;;;;;;;;;;22.19;52.12;101782.66;4966236;28;113858;-78
2023/09/15 09:08:45;;;;;;;;;;;;;;;22.31;51.93;101775.44;4970579;28;124697;-78
2023/09/15 09:11:13;;;;;;;;;;;;;;;22.38;51.71;101778.50;4958215;28;123415;-78
2023/09/15 09:13:41;;;;;;;;;;;;;;;22.43;51.74;101770.88;4967998;28;114079;-78
2023/09/15 09:16:13;;;;;;;;;;;;;;;22.49;51.76;101775.78;4971541;28;113623;-79
2023/09/15 09:18:40;;;;;;;;;;;;;;;22.55;51.77;101780.72;4966696;28;123801;-79
2023/09/15 09:21:08;;;;;;;;;;;;;;;22.58;51.53;101779.59;4964272;28;123443;-79
2023/09/15 09:23:35;;;;;;;;;;;;;;;22.62;51.53;101776.53;4960033;28;115237;-79
2023/09/15 09:26:09;;;;;;;;;;;;;;;22.68;51.65;101770.63;4972472;28;114427;-79
2023/09/15 09:28:36;;;;;;;;;;;;;;;22.73;51.34;101773.81;4970765;28;123680;-79
2023/09/15 09:31:04;;;;;;;;;;;;;;;22.76;51.36;101771.84;4969282;28;124025;-79
2023/09/15 09:33:31;;;;;;;;;;;;;;;22.81;51.59;101767.78;4981383;28;114900;-79
2023/09/15 09:36:08;;;;;;;;;;;;;;;22.91;51.63;101765.19;4972408;28;114351;-79
2023/09/15 09:38:35;;;;;;;;;;;;;;;23.00;51.57;101768.94;4970831;28;123511;-79
2023/09/15 09:41:03;;;;;;;;;;;;;;;23.09;51.58;101760.97;4970993;28;124569;-79
2023/09/15 09:43:32;;;;;;;;;;;;;;;23.15;51.38;101756.91;4971828;28;114810;-80
2023/09/15 09:46:00;;;;;;;;;;;;;;;23.25;51.51;101751.56;4970946;28;113690;-79
2023/09/15 09:48:27;;;;;;;;;;;;;;;23.33;51.43;101759.88;4971338;28;124446;-79
2023/09/15 09:50:55;;;;;;;;;;;;;;;23.38;51.39;101763.06;4970883;28;124561;-79
2023/09/15 09:53:26;;;;;;;;;;;;;;;23.43;51.17;101755.44;4971566;28;115866;-79
2023/09/15 09:55:54;;;;;;;;;;;;;;;23.54;51.23;101761.75;4956602;28;114725;-79
2023/09/15 09:58:22;;;;;;;;;;;;;;;23.67;51.46;101757.00;4968836;28;125335;-79
2023/09/15 10:00:50;;;;;;;;;;;;;;;23.82;51.50;101752.13;4970276;28;126249;-79
2023/09/15 10:03:17;;;;;;;;;;;;;;;23.94;51.26;101752.91;4954082;28;113731;-78
2023/09/15 10:05:45;;;;;;;;;;;;;;;24.02;51.13;101745.84;4963225;28;114002;-80
2023/09/15 10:08:12;;;;;;;;;;;;;;;24.14;51.28;101749.31;4952932;28;125023;-79
2023/09/15 10:10:43;;;;;;;;;;;;;;;24.23;51.14;101742.22;4951857;28;123695;-78
2023/09/15 10:13:10;;;;;;;;;;;;;;;24.31;50.97;101741.53;4951192;28;114339;-79
2023/09/15 10:15:41;;;;;;;;;;;;;;;24.39;51.09;101741.72;4966456;28;113787;-79
2023/09/15 10:18:12;;;;;;;;;;;;;;;24.41;50.58;101746.00;4967770;28;124540;-79
2023/09/15 10:20:40;;;;;;;;;;;;;;;24.42;50.59;101742.28;4969890;28;122609;-80
2023/09/15 10:23:07;;;;;;;;;;;;;;;24.45;50.79;101735.75;4959521;28;115374;-79
2023/09/15 10:25:47;;;;;;;;;;;;;;;24.48;50.63;101725.47;4965323;28;114073;-80
2023/09/15 10:28:17;;;;;;;;;;;;;;;24.57;50.55;101734.66;4971897;28;125081;-80
2023/09/15 10:31:04;;;;;;;;;;;;;;;24.63;50.63;101728.69;4964346;28;122335;-79
2023/09/15 10:33:32;;;;;;;;;;;;;;;24.70;50.54;101725.44;4964196;28;114873;-78
2023/09/15 10:36:03;;;;;;;;;;;;;;;24.76;50.57;101727.59;4956246;28;111969;-79
2023/09/15 10:38:32;;;;;;;;;;;;;;;24.83;50.60;101723.31;4964685;28;125398;-80
2023/09/15 10:41:03;;;;;;;;;;;;;;;24.87;50.27;101720.16;4963406;28;123975;-80
2023/09/15 10:43:31;;;;;;;;;;;;;;;24.88;50.13;101710.19;4968273;28;115277;-80
2023/09/15 10:46:02;;;;;;;;;;;;;;;24.95;50.27;101705.91;4961958;28;114724;-79
2023/09/15 10:48:39;;;;;;;;;;;;;;;25.02;50.55;101709.78;4969514;28;125177;-80
2023/09/15 10:51:08;;;;;;;;;;;;;;;25.09;50.33;101695.63;4961733;28;124097;-79
2023/09/15 10:54:01;;;;;;;;;;;;;;;25.14;50.08;101698.78;4978549;28;114974;-80
2023/09/15 10:56:28;;;;;;;;;;;;;;;25.20;49.89;101699.06;4959454;28;113398;-79
2023/09/15 10:58:55;;;;;;;;;;;;;;;25.22;49.81;101696.19;4971195;28;124092;-79
2023/09/15 11:01:22;;;;;;;;;;;;;;;25.26;49.85;101697.69;4965914;28;124932;-79
2023/09/15 11:03:49;;;;;;;;;;;;;;;25.34;50.09;101694.22;4967764;28;115414;-79
2023/09/15 11:06:18;;;;;;;;;;;;;;;25.42;50.18;101688.94;4960895;28;113412;-79
2023/09/15 11:08:45;;;;;;;;;;;;;;;25.49;49.96;101681.06;4970091;28;123507;-79
2023/09/15 11:11:15;;;;;;;;;;;;;;;25.55;49.74;101685.91;4966922;28;124349;-79
2023/09/15 11:13:42;;;;;;;;;;;;;;;25.62;49.75;101684.31;4967650;28;115089;-80
2023/09/15 11:16:10;;;;;;;;;;;;;;;25.75;49.99;101670.41;4966430;28;113612;-80
2023/09/15 11:18:38;;;;;;;;;;;;;;;25.90;49.98;101685.22;4968993;28;123247;-79
2023/09/15 11:21:06;;;;;;;;;;;;;;;25.97;49.84;101669.22;4967123;28;124473;-79
2023/09/15 11:23:34;;;;;;;;;;;;;;;26.00;49.62;101671.63;4972285;28;114629;-80
2023/09/15 11:26:06;;;;;;;;;;;;;;;26.02;49.06;101673.19;4970658;28;114159;-79
2023/09/15 11:28:51;;;;;;;;;;;;;;;26.02;49.23;101667.75;4965985;28;124437;-81
2023/09/15 11:31:18;;;;;;;;;;;;;;;26.09;49.21;101668.03;4960643;28;124196;-79
2023/09/15 11:33:46;;;;;;;;;;;;;;;26.14;49.21;101665.69;4967246;28;114799;-80
2023/09/15 11:36:13;;;;;;;;;;;;;;;26.18;49.08;101656.25;4964038;28;115794;-80
2023/09/15 11:38:44;;;;;;;;;;;;;;;26.18;48.99;101650.81;4964215;28;125138;-80
2023/09/15 11:41:12;;;;;;;;;;;;;;;26.20;49.10;101648.81;4971427;28;124411;-79
2023/09/15 11:43:40;;;;;;;;;;;;;;;26.26;49.11;101651.91;4953710;28;114908;-79
2023/09/15 11:46:07;;;;;;;;;;;;;;;26.31;48.98;101649.59;4969459;28;113990;-80
2023/09/15 11:48:38;;;;;;;;;;;;;;;26.37;49.02;101654.41;4958571;28;124484;-80
2023/09/15 11:51:09;;;;;;;;;;;;;;;26.40;48.94;101654.13;4960131;28;123750;-80
2023/09/15 11:53:37;;;;;;;;;;;;;;;26.42;49.13;101658.38;4968765;28;114582;-81
2023/09/15 11:56:05;;;;;;;;;;;;;;;26.50;48.91;101649.44;4966211;28;115287;-81
2023/09/15 11:58:33;;;;;;;;;;;;;;;26.58;48.84;101652.28;4968082;28;124228;-81
2023/09/15 12:01:01;;;;;;;;;;;;;;;26.63;48.78;101648.25;4964400;28;123250;-80
2023/09/15 12:03:29;;;;;;;;;;;;;;;26.59;48.76;101648.56;4979025;28;114886;-81
2023/09/15 12:05:56;;;;;;;;;;;;;;;26.59;48.64;101637.69;4981414;28;111969;-81
2023/09/15 12:08:23;;;;;;;;;;;;;;;26.61;48.69;101640.25;4985929;28;125029;-80
2023/09/15 12:10:50;;;;;;;;;;;;;;;26.63;48.68;101631.97;4987347;28;125042;-81
2023/09/15 12:13:36;;;;;;;;;;;;;;;26.66;48.67;101637.09;4990474;28;116716;-81
2023/09/15 12:16:04;;;;;;;;;;;;;;;26.66;48.61;101626.22;4979276;28;114810;-81
2023/09/15 12:18:36;;;;;;;;;;;;;;;26.73;48.46;101627.28;4966461;28;123756;-81
2023/09/15 12:21:08;;;;;;;;;;;;;;;26.79;48.77;101621.25;4964566;28;123243;-81
2023/09/15 12:23:35;;;;;;;;;;;;;;;26.89;48.61;101616.56;4966201;28;115229;-83
2023/09/15 12:26:03;;;;;;;;;;;;;;;26.99;48.84;101614.63;4968648;28;115675;-80
2023/09/15 12:28:31;;;;;;;;;;;;;;;27.06;48.68;101622.13;4971110;28;124031;-81
2023/09/15 12:30:59;;;;;;;;;;;;;;;27.04;48.40;101625.00;4967564;28;123330;-81
2023/09/15 12:33:26;;;;;;;;;;;;;;;27.00;48.08;101623.63;4963446;28;115148;-81